sensor_id;sensor_type;location;lat;lon;timestamp;pressure;altitude;pressure_sealevel;temperature;humidity
37202;BME280;37799;52.390;6.136;2022-12-31T00:00:00;100222.53;;;12.22;100.00
37202;BME280;37799;52.390;6.136;2022-12-31T00:02:25;100226.81;;;12.03;100.00
37202;BME280;37799;52.390;6.136;2022-12-31T00:04:53;100226.63;;;12.07;100.00
37202;BME280;37799;52.390;6.136;2022-12-31T00:07:19;100229.28;;;12.06;100.00
37202;BME280;37799;52.390;6.136;2022-12-31T00:09:44;100230.53;;;12.18;100.00
37202;BME280;37799;52.390;6.136;2022-12-31T00:12:09;100223.25;;;12.05;100.00
37202;BME280;37799;52.390;6.136;2022-12-31T00:14:35;100229.41;;;12.03;100.00
37202;BME280;37799;52.390;6.136;2022-12-31T00:17:00;100227.84;;;12.19;100.00
37202;BME280;37799;52.390;6.136;2022-12-31T00:19:25;100235.00;;;12.14;100.00
37202;BME280;37799;52.390;6.136;2022-12-31T00:21:51;100244.44;;;12.37;100.00
37202;BME280;37799;52.390;6.136;2022-12-31T00:24:16;100239.41;;;12.32;100.00
37202;BME280;37799;52.390;6.136;2022-12-31T00:26:41;100244.69;;;12.51;100.00
37202;BME280;37799;52.390;6.136;2022-12-31T00:29:07;100243.28;;;12.22;100.00
37202;BME280;37799;52.390;6.136;2022-12-31T00:31:34;100244.13;;;12.23;100.00
37202;BME280;37799;52.390;6.136;2022-12-31T00:34:00;100241.09;;;12.33;100.00
37202;BME280;37799;52.390;6.136;2022-12-31T00:36:29;100232.91;;;12.43;100.00
37202;BME280;37799;52.390;6.136;2022-12-31T00:38:55;100230.38;;;12.41;100.00
37202;BME280;37799;52.390;6.136;2022-12-31T00:41:22;100223.13;;;12.29;100.00
37202;BME280;37799;52.390;6.136;2022-12-31T00:43:47;100225.84;;;12.46;100.00
37202;BME280;37799;52.390;6.136;2022-12-31T00:46:13;100234.66;;;12.42;100.00
37202;BME280;37799;52.390;6.136;2022-12-31T00:48:39;100232.22;;;12.39;100.00
37202;BME280;37799;52.390;6.136;2022-12-31T00:51:06;100233.97;;;12.38;100.00
37202;BME280;37799;52.390;6.136;2022-12-31T00:53:33;100250.69;;;12.31;100.00
37202;BME280;37799;52.390;6.136;2022-12-31T00:56:00;100246.28;;;12.33;100.00
37202;BME280;37799;52.390;6.136;2022-12-31T00:58:26;100245.59;;;12.30;100.00
37202;BME280;37799;52.390;6.136;2022-12-31T01:00:51;100249.66;;;12.15;100.00
37202;BME280;37799;52.390;6.136;2022-12-31T01:03:17;100253.69;;;12.22;100.00
37202;BME280;37799;52.390;6.136;2022-12-31T01:05:42;100244.47;;;12.15;100.00
37202;BME280;37799;52.390;6.136;2022-12-31T01:08:07;100252.66;;;12.26;100.00
37202;BME280;37799;52.390;6.136;2022-12-31T01:10:33;100254.59;;;12.21;100.00
37202;BME280;37799;52.390;6.136;2022-12-31T01:13:16;100248.75;;;12.16;100.00
37202;BME280;37799;52.390;6.136;2022-12-31T01:15:42;100249.91;;;12.09;100.00
37202;BME280;37799;52.390;6.136;2022-12-31T01:18:08;100248.81;;;12.15;100.00
37202;BME280;37799;52.390;6.136;2022-12-31T01:20:38;100257.19;;;12.21;100.00
37202;BME280;37799;52.390;6.136;2022-12-31T01:23:05;100245.25;;;12.17;100.00
37202;BME280;37799;52.390;6.136;2022-12-31T01:25:34;100268.25;;;12.26;100.00
37202;BME280;37799;52.390;6.136;2022-12-31T01:27:59;100263.84;;;12.06;100.00
37202;BME280;37799;52.390;6.136;2022-12-31T01:30:24;100264.34;;;12.16;100.00
37202;BME280;37799;52.390;6.136;2022-12-31T01:32:50;100263.88;;;12.27;100.00
37202;BME280;37799;52.390;6.136;2022-12-31T01:35:15;100265.16;;;12.17;100.00
37202;BME280;37799;52.390;6.136;2022-12-31T01:37:40;100271.22;;;12.17;100.00
37202;BME280;37799;52.390;6.136;2022-12-31T01:40:06;100267.84;;;12.15;100.00
37202;BME280;37799;52.390;6.136;2022-12-31T01:42:31;100260.81;;;12.17;100.00
37202;BME280;37799;52.390;6.136;2022-12-31T01:44:56;100271.06;;;12.00;100.00
37202;BME280;37799;52.390;6.136;2022-12-31T01:47:33;100267.84;;;11.71;100.00
37202;BME280;37799;52.390;6.136;2022-12-31T01:50:21;100265.13;;;11.74;100.00
37202;BME280;37799;52.390;6.136;2022-12-31T01:52:50;100271.03;;;11.78;100.00
37202;BME280;37799;52.390;6.136;2022-12-31T01:55:21;100257.59;;;11.68;100.00
37202;BME280;37799;52.390;6.136;2022-12-31T01:57:50;100270.31;;;11.74;100.00
37202;BME280;37799;52.390;6.136;2022-12-31T02:00:17;100261.91;;;11.91;100.00
37202;BME280;37799;52.390;6.136;2022-12-31T02:02:42;100267.38;;;11.84;100.00
37202;BME280;37799;52.390;6.136;2022-12-31T02:07:43;100256.88;;;11.65;100.00
37202;BME280;37799;52.390;6.136;2022-12-31T02:10:09;100264.00;;;11.81;100.00
37202;BME280;37799;52.390;6.136;2022-12-31T02:12:34;100268.28;;;11.82;100.00
37202;BME280;37799;52.390;6.136;2022-12-31T02:14:59;100268.28;;;11.82;100.00
37202;BME280;37799;52.390;6.136;2022-12-31T02:17:32;100265.00;;;11.77;100.00
37202;BME280;37799;52.390;6.136;2022-12-31T02:30:31;100264.84;;;11.82;100.00
37202;BME280;37799;52.390;6.136;2022-12-31T02:33:12;100261.50;;;11.78;100.00
37202;BME280;37799;52.390;6.136;2022-12-31T02:35:50;100266.03;;;11.95;100.00
37202;BME280;37799;52.390;6.136;2022-12-31T02:38:22;100267.50;;;11.80;100.00
37202;BME280;37799;52.390;6.136;2022-12-31T02:40:48;100271.59;;;11.64;100.00
37202;BME280;37799;52.390;6.136;2022-12-31T02:43:14;100250.00;;;11.64;100.00
37202;BME280;37799;52.390;6.136;2022-12-31T02:45:44;100239.81;;;11.59;100.00
37202;BME280;37799;52.390;6.136;2022-12-31T02:51:33;100224.28;;;11.58;100.00
37202;BME280;37799;52.390;6.136;2022-12-31T02:54:11;100220.63;;;11.41;100.00
37202;BME280;37799;52.390;6.136;2022-12-31T02:56:59;100223.00;;;11.47;100.00
37202;BME280;37799;52.390;6.136;2022-12-31T03:02:34;100234.38;;;11.43;100.00
37202;BME280;37799;52.390;6.136;2022-12-31T03:05:02;100244.88;;;11.40;100.00
37202;BME280;37799;52.390;6.136;2022-12-31T03:07:29;100243.81;;;11.44;100.00
37202;BME280;37799;52.390;6.136;2022-12-31T03:09:56;100238.00;;;11.39;100.00
37202;BME280;37799;52.390;6.136;2022-12-31T03:12:24;100244.94;;;11.39;100.00
37202;BME280;37799;52.390;6.136;2022-12-31T03:15:11;100256.78;;;11.44;100.00
37202;BME280;37799;52.390;6.136;2022-12-31T03:23:14;100261.72;;;11.29;100.00
37202;BME280;37799;52.390;6.136;2022-12-31T03:25:39;100275.66;;;11.26;100.00
37202;BME280;37799;52.390;6.136;2022-12-31T03:28:07;100277.59;;;11.21;100.00
37202;BME280;37799;52.390;6.136;2022-12-31T03:30:34;100264.31;;;11.29;100.00
37202;BME280;37799;52.390;6.136;2022-12-31T03:33:00;100262.75;;;11.25;100.00
37202;BME280;37799;52.390;6.136;2022-12-31T03:35:27;100273.16;;;11.46;100.00
37202;BME280;37799;52.390;6.136;2022-12-31T03:37:53;100267.59;;;11.34;100.00
37202;BME280;37799;52.390;6.136;2022-12-31T03:40:19;100270.06;;;11.37;100.00
37202;BME280;37799;52.390;6.136;2022-12-31T03:42:45;100262.88;;;11.21;100.00
37202;BME280;37799;52.390;6.136;2022-12-31T03:45:11;100279.03;;;11.28;100.00
37202;BME280;37799;52.390;6.136;2022-12-31T03:47:37;100276.00;;;11.17;100.00
37202;BME280;37799;52.390;6.136;2022-12-31T03:50:03;100268.66;;;11.28;100.00
37202;BME280;37799;52.390;6.136;2022-12-31T03:52:29;100274.88;;;11.24;100.00
37202;BME280;37799;52.390;6.136;2022-12-31T03:54:54;100280.31;;;11.40;100.00
37202;BME280;37799;52.390;6.136;2022-12-31T03:57:20;100280.66;;;11.31;100.00
37202;BME280;37799;52.390;6.136;2022-12-31T03:59:45;100281.41;;;11.34;100.00
37202;BME280;37799;52.390;6.136;2022-12-31T04:02:10;100283.59;;;11.21;100.00
37202;BME280;37799;52.390;6.136;2022-12-31T04:04:36;100289.00;;;11.39;100.00
37202;BME280;37799;52.390;6.136;2022-12-31T04:07:01;100283.38;;;11.28;100.00
37202;BME280;37799;52.390;6.136;2022-12-31T04:09:26;100277.16;;;11.32;100.00
37202;BME280;37799;52.390;6.136;2022-12-31T04:11:52;100263.13;;;11.37;100.00
37202;BME280;37799;52.390;6.136;2022-12-31T04:14:17;100245.28;;;11.30;100.00
37202;BME280;37799;52.390;6.136;2022-12-31T04:16:43;100250.34;;;11.55;100.00
37202;BME280;37799;52.390;6.136;2022-12-31T04:19:09;100249.47;;;11.34;100.00
37202;BME280;37799;52.390;6.136;2022-12-31T04:21:34;100247.09;;;11.28;100.00
37202;BME280;37799;52.390;6.136;2022-12-31T04:24:00;100257.38;;;11.29;100.00
37202;BME280;37799;52.390;6.136;2022-12-31T04:26:26;100257.75;;;11.20;100.00
37202;BME280;37799;52.390;6.136;2022-12-31T04:28:52;100243.19;;;11.16;100.00
37202;BME280;37799;52.390;6.136;2022-12-31T04:31:17;100245.00;;;11.14;100.00
37202;BME280;37799;52.390;6.136;2022-12-31T04:33:43;100227.16;;;11.06;100.00
37202;BME280;37799;52.390;6.136;2022-12-31T04:36:08;100233.03;;;11.11;100.00
37202;BME280;37799;52.390;6.136;2022-12-31T04:38:34;100236.63;;;11.07;100.00
37202;BME280;37799;52.390;6.136;2022-12-31T04:40:59;100230.81;;;11.24;100.00
37202;BME280;37799;52.390;6.136;2022-12-31T04:44:00;100234.44;;;11.42;100.00
37202;BME280;37799;52.390;6.136;2022-12-31T04:46:28;100251.78;;;11.40;100.00
37202;BME280;37799;52.390;6.136;2022-12-31T04:48:54;100249.53;;;11.31;100.00
37202;BME280;37799;52.390;6.136;2022-12-31T04:51:20;100256.84;;;11.43;100.00
37202;BME280;37799;52.390;6.136;2022-12-31T04:53:46;100252.31;;;11.26;100.00
37202;BME280;37799;52.390;6.136;2022-12-31T04:56:11;100244.16;;;11.13;100.00
37202;BME280;37799;52.390;6.136;2022-12-31T04:58:37;100238.03;;;11.16;100.00
37202;BME280;37799;52.390;6.136;2022-12-31T05:01:03;100256.56;;;11.05;100.00
37202;BME280;37799;52.390;6.136;2022-12-31T05:03:29;100249.53;;;11.09;100.00
37202;BME280;37799;52.390;6.136;2022-12-31T05:06:05;100247.47;;;10.95;100.00
37202;BME280;37799;52.390;6.136;2022-12-31T05:08:31;100265.41;;;11.23;100.00
37202;BME280;37799;52.390;6.136;2022-12-31T05:10:57;100255.16;;;11.20;100.00
37202;BME280;37799;52.390;6.136;2022-12-31T05:13:23;100258.53;;;11.22;100.00
37202;BME280;37799;52.390;6.136;2022-12-31T05:15:49;100252.34;;;11.03;100.00
37202;BME280;37799;52.390;6.136;2022-12-31T05:18:15;100265.28;;;11.03;100.00
37202;BME280;37799;52.390;6.136;2022-12-31T05:20:40;100249.28;;;11.15;100.00
37202;BME280;37799;52.390;6.136;2022-12-31T05:23:06;100255.78;;;11.03;100.00
37202;BME280;37799;52.390;6.136;2022-12-31T05:25:31;100263.09;;;11.15;100.00
37202;BME280;37799;52.390;6.136;2022-12-31T05:27:57;100255.22;;;10.95;100.00
37202;BME280;37799;52.390;6.136;2022-12-31T05:30:22;100255.00;;;11.01;100.00
37202;BME280;37799;52.390;6.136;2022-12-31T05:32:48;100258.59;;;10.97;100.00
37202;BME280;37799;52.390;6.136;2022-12-31T05:35:14;100246.56;;;10.96;100.00
37202;BME280;37799;52.390;6.136;2022-12-31T05:37:39;100268.47;;;11.11;100.00
37202;BME280;37799;52.390;6.136;2022-12-31T05:40:05;100260.50;;;11.15;100.00
37202;BME280;37799;52.390;6.136;2022-12-31T05:42:31;100273.47;;;11.15;100.00
37202;BME280;37799;52.390;6.136;2022-12-31T05:44:56;100273.56;;;11.12;100.00
37202;BME280;37799;52.390;6.136;2022-12-31T05:47:22;100264.91;;;11.13;100.00
37202;BME280;37799;52.390;6.136;2022-12-31T05:49:47;100263.53;;;11.03;100.00
37202;BME280;37799;52.390;6.136;2022-12-31T05:52:13;100257.91;;;10.92;100.00
37202;BME280;37799;52.390;6.136;2022-12-31T05:54:38;100249.97;;;10.73;100.00
37202;BME280;37799;52.390;6.136;2022-12-31T05:57:04;100261.28;;;10.71;100.00
37202;BME280;37799;52.390;6.136;2022-12-31T05:59:29;100266.50;;;10.94;100.00
37202;BME280;37799;52.390;6.136;2022-12-31T06:01:54;100262.53;;;10.84;100.00
37202;BME280;37799;52.390;6.136;2022-12-31T06:04:20;100251.81;;;10.93;100.00
37202;BME280;37799;52.390;6.136;2022-12-31T06:06:45;100264.94;;;10.88;100.00
37202;BME280;37799;52.390;6.136;2022-12-31T06:09:10;100265.47;;;10.98;100.00
37202;BME280;37799;52.390;6.136;2022-12-31T06:11:36;100265.00;;;10.87;100.00
37202;BME280;37799;52.390;6.136;2022-12-31T06:14:01;100274.09;;;10.99;100.00
37202;BME280;37799;52.390;6.136;2022-12-31T06:16:26;100264.50;;;11.01;100.00
37202;BME280;37799;52.390;6.136;2022-12-31T06:18:52;100274.22;;;10.96;100.00
37202;BME280;37799;52.390;6.136;2022-12-31T06:21:18;100267.59;;;10.87;100.00
37202;BME280;37799;52.390;6.136;2022-12-31T06:23:44;100268.50;;;11.09;100.00
37202;BME280;37799;52.390;6.136;2022-12-31T06:26:10;100270.41;;;11.04;100.00
37202;BME280;37799;52.390;6.136;2022-12-31T06:28:35;100263.66;;;11.00;100.00
37202;BME280;37799;52.390;6.136;2022-12-31T06:31:02;100261.53;;;11.11;100.00
37202;BME280;37799;52.390;6.136;2022-12-31T06:33:27;100260.53;;;11.37;100.00
37202;BME280;37799;52.390;6.136;2022-12-31T06:35:57;100260.44;;;11.17;100.00
37202;BME280;37799;52.390;6.136;2022-12-31T06:38:24;100261.34;;;11.16;100.00
37202;BME280;37799;52.390;6.136;2022-12-31T06:40:49;100263.94;;;11.16;100.00
37202;BME280;37799;52.390;6.136;2022-12-31T06:43:15;100254.59;;;11.12;100.00
37202;BME280;37799;52.390;6.136;2022-12-31T06:45:40;100262.34;;;11.35;100.00
37202;BME280;37799;52.390;6.136;2022-12-31T06:48:06;100267.34;;;11.40;100.00
37202;BME280;37799;52.390;6.136;2022-12-31T06:50:31;100268.75;;;11.48;100.00
37202;BME280;37799;52.390;6.136;2022-12-31T06:52:56;100272.19;;;11.49;100.00
37202;BME280;37799;52.390;6.136;2022-12-31T06:55:22;100280.75;;;11.51;100.00
37202;BME280;37799;52.390;6.136;2022-12-31T06:57:48;100280.09;;;11.46;100.00
37202;BME280;37799;52.390;6.136;2022-12-31T07:00:13;100274.91;;;11.46;100.00
37202;BME280;37799;52.390;6.136;2022-12-31T07:03:15;100273.41;;;11.62;100.00
37202;BME280;37799;52.390;6.136;2022-12-31T07:05:49;100280.03;;;11.69;100.00
37202;BME280;37799;52.390;6.136;2022-12-31T07:08:28;100283.78;;;11.62;100.00
37202;BME280;37799;52.390;6.136;2022-12-31T07:14:12;100282.81;;;11.65;100.00
37202;BME280;37799;52.390;6.136;2022-12-31T07:21:54;100286.22;;;11.89;100.00
37202;BME280;37799;52.390;6.136;2022-12-31T07:24:21;100285.50;;;11.85;100.00
37202;BME280;37799;52.390;6.136;2022-12-31T07:29:34;100278.84;;;12.00;100.00
37202;BME280;37799;52.390;6.136;2022-12-31T07:37:48;100263.34;;;12.19;100.00
37202;BME280;37799;52.390;6.136;2022-12-31T07:46:04;100262.91;;;12.29;100.00
37202;BME280;37799;52.390;6.136;2022-12-31T07:48:31;100274.84;;;12.33;100.00
37202;BME280;37799;52.390;6.136;2022-12-31T07:50:57;100261.72;;;12.36;100.00
37202;BME280;37799;52.390;6.136;2022-12-31T07:53:23;100275.31;;;12.43;100.00
37202;BME280;37799;52.390;6.136;2022-12-31T07:55:53;100281.47;;;12.61;100.00
37202;BME280;37799;52.390;6.136;2022-12-31T07:58:39;100284.81;;;12.63;100.00
37202;BME280;37799;52.390;6.136;2022-12-31T08:01:12;100299.13;;;12.73;100.00
37202;BME280;37799;52.390;6.136;2022-12-31T08:03:58;100304.31;;;12.73;100.00
37202;BME280;37799;52.390;6.136;2022-12-31T08:06:38;100303.16;;;12.80;100.00
37202;BME280;37799;52.390;6.136;2022-12-31T08:09:20;100304.69;;;12.84;100.00
37202;BME280;37799;52.390;6.136;2022-12-31T08:11:59;100309.75;;;12.87;100.00
37202;BME280;37799;52.390;6.136;2022-12-31T08:14:25;100313.00;;;12.92;100.00
37202;BME280;37799;52.390;6.136;2022-12-31T08:16:51;100301.94;;;12.87;100.00
37202;BME280;37799;52.390;6.136;2022-12-31T08:22:12;100321.28;;;13.00;100.00
37202;BME280;37799;52.390;6.136;2022-12-31T08:32:23;100322.56;;;13.11;100.00
37202;BME280;37799;52.390;6.136;2022-12-31T08:35:25;100327.63;;;13.14;100.00
37202;BME280;37799;52.390;6.136;2022-12-31T08:38:07;100320.63;;;13.16;100.00
37202;BME280;37799;52.390;6.136;2022-12-31T08:40:53;100328.44;;;13.16;100.00
37202;BME280;37799;52.390;6.136;2022-12-31T08:46:02;100345.97;;;13.31;100.00
37202;BME280;37799;52.390;6.136;2022-12-31T08:48:41;100336.06;;;13.20;100.00
37202;BME280;37799;52.390;6.136;2022-12-31T08:51:13;100332.19;;;13.29;100.00
37202;BME280;37799;52.390;6.136;2022-12-31T08:53:38;100343.97;;;13.17;100.00
37202;BME280;37799;52.390;6.136;2022-12-31T08:56:08;100352.28;;;13.25;100.00
37202;BME280;37799;52.390;6.136;2022-12-31T09:07:37;100361.31;;;13.17;100.00
37202;BME280;37799;52.390;6.136;2022-12-31T09:10:27;100372.38;;;13.22;100.00
37202;BME280;37799;52.390;6.136;2022-12-31T09:13:05;100384.38;;;13.24;100.00
37202;BME280;37799;52.390;6.136;2022-12-31T09:15:57;100400.00;;;13.24;100.00
37202;BME280;37799;52.390;6.136;2022-12-31T09:18:21;100401.13;;;13.19;100.00
37202;BME280;37799;52.390;6.136;2022-12-31T09:20:48;100399.41;;;13.18;100.00
37202;BME280;37799;52.390;6.136;2022-12-31T09:23:14;100389.38;;;13.09;100.00
37202;BME280;37799;52.390;6.136;2022-12-31T09:25:56;100389.19;;;13.13;100.00
37202;BME280;37799;52.390;6.136;2022-12-31T09:28:30;100390.16;;;13.11;100.00
37202;BME280;37799;52.390;6.136;2022-12-31T09:31:17;100407.44;;;13.12;100.00
37202;BME280;37799;52.390;6.136;2022-12-31T09:36:33;100402.34;;;12.90;100.00
37202;BME280;37799;52.390;6.136;2022-12-31T09:39:27;100415.81;;;13.20;100.00
37202;BME280;37799;52.390;6.136;2022-12-31T09:48:29;100424.38;;;13.22;100.00
37202;BME280;37799;52.390;6.136;2022-12-31T09:51:22;100440.13;;;13.19;100.00
37202;BME280;37799;52.390;6.136;2022-12-31T09:56:34;100422.78;;;13.38;100.00
37202;BME280;37799;52.390;6.136;2022-12-31T10:02:01;100423.31;;;13.46;100.00
37202;BME280;37799;52.390;6.136;2022-12-31T10:07:45;100429.25;;;13.69;100.00
37202;BME280;37799;52.390;6.136;2022-12-31T10:10:25;100446.47;;;13.71;100.00
37202;BME280;37799;52.390;6.136;2022-12-31T10:24:19;100436.81;;;13.92;100.00
37202;BME280;37799;52.390;6.136;2022-12-31T10:26:58;100422.03;;;13.93;100.00
37202;BME280;37799;52.390;6.136;2022-12-31T10:35:17;100420.63;;;14.04;100.00
37202;BME280;37799;52.390;6.136;2022-12-31T10:38:22;100428.25;;;14.09;100.00
37202;BME280;37799;52.390;6.136;2022-12-31T10:55:16;100432.34;;;14.32;100.00
37202;BME280;37799;52.390;6.136;2022-12-31T11:23:23;100446.28;;;14.31;100.00
37202;BME280;37799;52.390;6.136;2022-12-31T11:25:37;100439.13;;;14.36;100.00
37202;BME280;37799;52.390;6.136;2022-12-31T11:28:26;100446.22;;;14.51;100.00
37202;BME280;37799;52.390;6.136;2022-12-31T11:33:42;100454.53;;;14.40;100.00
37202;BME280;37799;52.390;6.136;2022-12-31T11:39:24;100444.59;;;14.30;100.00
37202;BME280;37799;52.390;6.136;2022-12-31T11:42:17;100452.03;;;14.20;100.00
37202;BME280;37799;52.390;6.136;2022-12-31T11:44:58;100448.06;;;14.30;100.00
37202;BME280;37799;52.390;6.136;2022-12-31T11:47:49;100443.06;;;14.26;100.00
37202;BME280;37799;52.390;6.136;2022-12-31T11:58:28;100448.44;;;14.23;100.00
37202;BME280;37799;52.390;6.136;2022-12-31T12:01:10;100437.09;;;14.24;100.00
37202;BME280;37799;52.390;6.136;2022-12-31T12:03:38;100441.72;;;14.36;100.00
37202;BME280;37799;52.390;6.136;2022-12-31T12:06:11;100434.06;;;14.14;100.00
37202;BME280;37799;52.390;6.136;2022-12-31T12:08:36;100446.25;;;14.32;100.00
37202;BME280;37799;52.390;6.136;2022-12-31T12:11:06;100446.63;;;14.42;100.00
37202;BME280;37799;52.390;6.136;2022-12-31T12:13:32;100458.19;;;14.36;100.00
37202;BME280;37799;52.390;6.136;2022-12-31T12:16:00;100447.78;;;14.17;100.00
37202;BME280;37799;52.390;6.136;2022-12-31T12:19:03;100449.56;;;14.17;100.00
37202;BME280;37799;52.390;6.136;2022-12-31T12:21:29;100462.50;;;14.18;100.00
37202;BME280;37799;52.390;6.136;2022-12-31T12:24:20;100444.16;;;14.22;100.00
37202;BME280;37799;52.390;6.136;2022-12-31T12:26:46;100447.72;;;14.19;100.00
37202;BME280;37799;52.390;6.136;2022-12-31T12:32:04;100444.53;;;14.31;100.00
37202;BME280;37799;52.390;6.136;2022-12-31T12:34:32;100431.19;;;14.20;100.00
37202;BME280;37799;52.390;6.136;2022-12-31T12:36:58;100446.78;;;14.39;100.00
37202;BME280;37799;52.390;6.136;2022-12-31T12:39:30;100441.41;;;14.42;100.00
37202;BME280;37799;52.390;6.136;2022-12-31T12:42:12;100443.00;;;14.46;100.00
37202;BME280;37799;52.390;6.136;2022-12-31T12:44:39;100448.38;;;14.41;100.00
37202;BME280;37799;52.390;6.136;2022-12-31T12:47:07;100433.41;;;14.28;100.00
37202;BME280;37799;52.390;6.136;2022-12-31T12:49:40;100447.84;;;14.35;100.00
37202;BME280;37799;52.390;6.136;2022-12-31T12:55:23;100447.63;;;14.39;100.00
37202;BME280;37799;52.390;6.136;2022-12-31T13:00:48;100449.53;;;14.55;100.00
37202;BME280;37799;52.390;6.136;2022-12-31T13:16:35;100442.34;;;14.60;100.00
37202;BME280;37799;52.390;6.136;2022-12-31T13:19:33;100419.25;;;14.52;100.00
37202;BME280;37799;52.390;6.136;2022-12-31T13:22:19;100451.28;;;14.54;100.00
37202;BME280;37799;52.390;6.136;2022-12-31T13:24:52;100445.56;;;14.65;100.00
37202;BME280;37799;52.390;6.136;2022-12-31T13:27:27;100455.28;;;14.61;100.00
37202;BME280;37799;52.390;6.136;2022-12-31T13:29:58;100440.50;;;14.62;100.00
37202;BME280;37799;52.390;6.136;2022-12-31T13:32:35;100453.13;;;14.52;100.00
37202;BME280;37799;52.390;6.136;2022-12-31T13:35:17;100463.88;;;14.63;100.00
37202;BME280;37799;52.390;6.136;2022-12-31T13:37:45;100462.78;;;14.67;100.00
37202;BME280;37799;52.390;6.136;2022-12-31T13:40:29;100479.34;;;14.66;100.00
37202;BME280;37799;52.390;6.136;2022-12-31T13:43:26;100462.94;;;14.64;100.00
37202;BME280;37799;52.390;6.136;2022-12-31T13:46:03;100475.50;;;14.56;100.00
37202;BME280;37799;52.390;6.136;2022-12-31T13:48:36;100469.94;;;14.45;100.00
37202;BME280;37799;52.390;6.136;2022-12-31T13:51:21;100470.44;;;14.53;100.00
37202;BME280;37799;52.390;6.136;2022-12-31T13:54:00;100464.47;;;14.51;100.00
37202;BME280;37799;52.390;6.136;2022-12-31T13:56:32;100477.75;;;14.45;100.00
37202;BME280;37799;52.390;6.136;2022-12-31T13:59:14;100477.75;;;14.45;100.00
37202;BME280;37799;52.390;6.136;2022-12-31T14:04:16;100463.47;;;14.35;100.00
37202;BME280;37799;52.390;6.136;2022-12-31T14:06:52;100469.94;;;14.45;100.00
37202;BME280;37799;52.390;6.136;2022-12-31T14:09:25;100478.81;;;14.41;100.00
37202;BME280;37799;52.390;6.136;2022-12-31T14:12:08;100483.66;;;14.30;100.00
37202;BME280;37799;52.390;6.136;2022-12-31T14:17:34;100471.88;;;14.23;100.00
37202;BME280;37799;52.390;6.136;2022-12-31T14:23:58;100488.50;;;14.20;100.00
37202;BME280;37799;52.390;6.136;2022-12-31T14:26:31;100486.94;;;14.35;100.00
37202;BME280;37799;52.390;6.136;2022-12-31T14:29:11;100495.50;;;14.37;100.00
37202;BME280;37799;52.390;6.136;2022-12-31T14:45:54;100484.09;;;14.39;100.00
37202;BME280;37799;52.390;6.136;2022-12-31T14:51:27;100489.69;;;14.51;100.00
37202;BME280;37799;52.390;6.136;2022-12-31T14:53:53;100503.88;;;14.62;100.00
37202;BME280;37799;52.390;6.136;2022-12-31T14:56:42;100493.13;;;14.51;100.00
37202;BME280;37799;52.390;6.136;2022-12-31T14:59:23;100514.50;;;14.39;100.00
37202;BME280;37799;52.390;6.136;2022-12-31T15:01:49;100515.06;;;14.27;100.00
37202;BME280;37799;52.390;6.136;2022-12-31T15:04:14;100510.09;;;14.22;100.00
37202;BME280;37799;52.390;6.136;2022-12-31T15:07:03;100524.50;;;14.29;100.00
37202;BME280;37799;52.390;6.136;2022-12-31T15:09:52;100528.19;;;14.06;100.00
37202;BME280;37799;52.390;6.136;2022-12-31T15:15:29;100534.19;;;13.88;100.00
37202;BME280;37799;52.390;6.136;2022-12-31T15:18:25;100541.09;;;13.89;100.00
37202;BME280;37799;52.390;6.136;2022-12-31T15:23:54;100530.53;;;13.92;100.00
37202;BME280;37799;52.390;6.136;2022-12-31T15:26:30;100544.28;;;13.96;100.00
37202;BME280;37799;52.390;6.136;2022-12-31T15:29:03;100541.47;;;13.80;100.00
37202;BME280;37799;52.390;6.136;2022-12-31T15:31:31;100555.38;;;13.99;100.00
37202;BME280;37799;52.390;6.136;2022-12-31T15:34:01;100557.59;;;14.08;100.00
37202;BME280;37799;52.390;6.136;2022-12-31T15:36:29;100550.19;;;13.99;100.00
37202;BME280;37799;52.390;6.136;2022-12-31T15:39:20;100532.22;;;13.93;100.00
37202;BME280;37799;52.390;6.136;2022-12-31T15:41:48;100532.47;;;14.07;100.00
37202;BME280;37799;52.390;6.136;2022-12-31T15:47:24;100534.78;;;13.95;100.00
37202;BME280;37799;52.390;6.136;2022-12-31T15:49:52;100529.78;;;14.09;100.00
37202;BME280;37799;52.390;6.136;2022-12-31T15:52:25;100544.44;;;14.11;100.00
37202;BME280;37799;52.390;6.136;2022-12-31T15:54:55;100538.59;;;14.06;100.00
37202;BME280;37799;52.390;6.136;2022-12-31T15:57:33;100528.50;;;14.17;100.00
37202;BME280;37799;52.390;6.136;2022-12-31T16:00:13;100525.44;;;14.09;100.00
37202;BME280;37799;52.390;6.136;2022-12-31T16:02:40;100517.19;;;14.18;100.00
37202;BME280;37799;52.390;6.136;2022-12-31T16:05:16;100517.81;;;14.24;100.00
37202;BME280;37799;52.390;6.136;2022-12-31T16:07:42;100516.41;;;14.16;100.00
37202;BME280;37799;52.390;6.136;2022-12-31T16:10:08;100515.31;;;14.22;100.00
37202;BME280;37799;52.390;6.136;2022-12-31T16:12:34;100518.03;;;14.19;100.00
37202;BME280;37799;52.390;6.136;2022-12-31T16:15:02;100530.13;;;14.39;100.00
37202;BME280;37799;52.390;6.136;2022-12-31T16:17:33;100519.28;;;14.29;100.00
37202;BME280;37799;52.390;6.136;2022-12-31T16:20:00;100518.19;;;14.35;100.00
37202;BME280;37799;52.390;6.136;2022-12-31T16:22:34;100515.19;;;14.42;100.00
37202;BME280;37799;52.390;6.136;2022-12-31T16:25:00;100522.97;;;14.44;100.00
37202;BME280;37799;52.390;6.136;2022-12-31T16:27:27;100507.47;;;14.41;100.00
37202;BME280;37799;52.390;6.136;2022-12-31T16:32:23;100511.50;;;14.48;100.00
37202;BME280;37799;52.390;6.136;2022-12-31T16:34:49;100515.84;;;14.66;100.00
37202;BME280;37799;52.390;6.136;2022-12-31T16:37:16;100515.84;;;14.66;100.00